createdAt,value
2017-05-16T00:01:04.142Z,11.90
2017-05-16T00:03:38.418Z,12.00
2017-05-16T00:06:07.946Z,12.00
2017-05-16T00:08:38.490Z,12.00
2017-05-16T00:11:08.022Z,12.00
2017-05-16T00:13:37.554Z,11.90
2017-05-16T00:16:10.338Z,12.00
2017-05-16T00:18:40.799Z,12.00
2017-05-16T00:21:10.369Z,12.00
2017-05-16T00:23:39.913Z,11.90
2017-05-16T00:26:11.402Z,11.80
2017-05-16T00:28:41.885Z,11.80
2017-05-16T00:31:13.366Z,11.80
2017-05-16T00:33:42.893Z,11.90
2017-05-16T00:36:17.837Z,11.80
2017-05-16T00:38:47.342Z,11.80
2017-05-16T00:41:16.878Z,11.80
2017-05-16T00:43:51.917Z,11.70
2017-05-16T00:46:22.469Z,11.70
2017-05-16T00:49:15.381Z,11.70
2017-05-16T00:51:46.137Z,11.60
2017-05-16T00:54:28.365Z,11.50
2017-05-16T00:57:01.649Z,11.50
2017-05-16T00:59:34.301Z,11.50
2017-05-16T01:02:09.053Z,11.40
2017-05-16T01:04:38.586Z,11.30
2017-05-16T01:07:08.129Z,11.10
2017-05-16T01:09:41.433Z,10.80
2017-05-16T01:12:11.905Z,10.60
2017-05-16T01:14:49.874Z,10.50
2017-05-16T01:17:20.596Z,10.50
2017-05-16T01:19:56.941Z,10.70
2017-05-16T01:22:27.462Z,10.70
2017-05-16T01:24:56.985Z,10.80
2017-05-16T01:27:26.521Z,10.70
2017-05-16T01:29:56.053Z,10.70
2017-05-16T01:32:32.977Z,10.70
2017-05-16T01:35:04.440Z,10.70
2017-05-16T01:37:33.989Z,10.70
2017-05-16T01:40:04.468Z,10.60
2017-05-16T01:42:38.401Z,10.60
2017-05-16T01:45:13.793Z,10.60
2017-05-16T01:47:46.949Z,10.70
2017-05-16T01:50:27.652Z,10.70
2017-05-16T01:52:57.961Z,10.70
2017-05-16T01:55:27.501Z,10.70
2017-05-16T01:57:58.349Z,10.80
2017-05-16T02:00:35.908Z,10.80
2017-05-16T02:03:06.224Z,10.60
2017-05-16T02:05:52.084Z,10.70
2017-05-16T02:08:21.648Z,10.70
2017-05-16T02:10:51.204Z,10.70
2017-05-16T02:13:20.744Z,10.60
2017-05-16T02:15:52.028Z,10.40
2017-05-16T02:18:27.341Z,10.40
2017-05-16T02:21:00.260Z,10.40
2017-05-16T02:23:35.060Z,10.40
2017-05-16T02:26:04.632Z,10.50
2017-05-16T02:28:34.181Z,10.50
2017-05-16T02:31:04.732Z,10.50
2017-05-16T02:33:35.224Z,10.50
2017-05-16T02:36:19.220Z,10.50
2017-05-16T02:38:48.776Z,10.50
2017-05-16T02:41:20.232Z,10.50
2017-05-16T02:43:54.036Z,10.40
2017-05-16T02:46:27.780Z,10.10
2017-05-16T02:48:57.324Z,10.00
2017-05-16T02:51:26.860Z,9.60
2017-05-16T02:54:12.589Z,9.40
2017-05-16T02:56:51.708Z,9.40
2017-05-16T02:59:25.864Z,9.40
2017-05-16T03:01:58.591Z,9.50
2017-05-16T03:04:34.059Z,9.60
2017-05-16T03:07:05.579Z,9.70
2017-05-16T03:09:40.988Z,9.80
2017-05-16T03:12:10.524Z,9.80
2017-05-16T03:14:44.804Z,9.60
2017-05-16T03:17:14.363Z,9.60
2017-05-16T03:19:43.889Z,9.80
2017-05-16T03:22:13.460Z,9.70
2017-05-16T03:24:42.968Z,9.80
2017-05-16T03:27:12.504Z,9.90
2017-05-16T03:29:42.056Z,9.90
2017-05-16T03:32:11.576Z,9.90
2017-05-16T03:34:41.108Z,10.00
2017-05-16T03:37:11.634Z,10.00
2017-05-16T03:39:43.156Z,10.00
2017-05-16T03:42:12.675Z,9.90
2017-05-16T03:44:42.199Z,10.10
2017-05-16T03:47:11.740Z,10.00
2017-05-16T03:49:43.200Z,10.10
2017-05-16T03:52:13.715Z,10.00
2017-05-16T03:54:43.483Z,10.10
2017-05-16T03:57:13.007Z,10.00
2017-05-16T03:59:44.292Z,10.00
2017-05-16T04:04:42.686Z,9.90
2017-05-16T04:07:13.431Z,9.90
2017-05-16T04:09:42.965Z,9.80
2017-05-16T04:12:12.483Z,9.80
2017-05-16T04:14:42.035Z,9.90
2017-05-16T04:17:11.559Z,9.80
2017-05-16T04:19:42.075Z,9.80
2017-05-16T04:22:11.595Z,10.00
2017-05-16T04:24:41.151Z,10.10
2017-05-16T04:27:12.411Z,10.10
2017-05-16T04:29:41.938Z,10.00
2017-05-16T04:32:11.466Z,10.10
2017-05-16T04:34:41.022Z,10.00
2017-05-16T04:37:10.886Z,10.10
2017-05-16T04:39:41.366Z,10.30
2017-05-16T04:42:10.918Z,10.40
2017-05-16T04:44:40.443Z,10.60
2017-05-16T04:47:09.982Z,10.50
2017-05-16T04:49:39.942Z,10.50
2017-05-16T04:52:09.551Z,10.60
2017-05-16T04:54:39.103Z,10.70
2017-05-16T04:57:08.623Z,10.80
2017-05-16T04:59:38.175Z,11.10
2017-05-16T05:02:16.186Z,11.30
2017-05-16T05:04:46.722Z,11.40
2017-05-16T05:07:17.038Z,11.40
2017-05-16T05:09:46.665Z,11.60
2017-05-16T05:12:18.974Z,11.80
2017-05-16T05:14:52.466Z,11.90
2017-05-16T05:17:23.042Z,12.00
2017-05-16T05:19:52.599Z,12.00
2017-05-16T05:22:23.832Z,12.10
2017-05-16T05:24:54.462Z,12.30
2017-05-16T05:27:24.998Z,12.30
2017-05-16T05:29:57.806Z,12.60
2017-05-16T05:32:27.350Z,12.60
2017-05-16T05:34:58.349Z,12.80
2017-05-16T05:37:29.862Z,12.90
2017-05-16T05:40:03.074Z,13.00
2017-05-16T05:42:32.638Z,13.20
2017-05-16T05:45:14.378Z,13.30
2017-05-16T05:47:44.901Z,13.50
2017-05-16T05:50:14.734Z,13.70
2017-05-16T05:52:45.218Z,13.80
2017-05-16T05:55:20.541Z,13.90
2017-05-16T05:57:56.390Z,14.00
2017-05-16T06:00:32.070Z,14.10
2017-05-16T06:03:01.602Z,14.20
2017-05-16T06:05:32.070Z,14.30
2017-05-16T06:08:05.651Z,14.40
2017-05-16T06:10:35.205Z,14.50
2017-05-16T06:13:11.261Z,14.60
2017-05-16T06:15:46.586Z,14.80
2017-05-16T06:18:33.373Z,14.70
2017-05-16T06:21:04.809Z,14.90
2017-05-16T06:23:34.337Z,14.90
2017-05-16T06:26:04.630Z,15.00
2017-05-16T06:28:34.222Z,15.20
2017-05-16T06:31:03.813Z,15.30
2017-05-16T06:33:33.362Z,15.40
2017-05-16T06:36:02.886Z,15.50
2017-05-16T06:38:33.186Z,15.60
2017-05-16T06:41:02.713Z,15.60
2017-05-16T06:43:33.018Z,15.80
2017-05-16T06:46:03.453Z,15.90
2017-05-16T06:48:33.745Z,16.00
2017-05-16T06:51:03.265Z,16.10
2017-05-16T06:53:32.849Z,16.30
2017-05-16T06:56:02.385Z,16.40
2017-05-16T06:58:31.950Z,16.50
2017-05-16T07:01:01.501Z,16.70
2017-05-16T07:03:31.041Z,17.00
2017-05-16T07:06:00.566Z,17.10
2017-05-16T07:08:30.201Z,17.10
2017-05-16T07:10:59.700Z,17.30
2017-05-16T07:13:29.444Z,17.20
2017-05-16T07:15:59.736Z,17.40
2017-05-16T07:18:29.277Z,17.50
2017-05-16T07:20:59.584Z,17.50
2017-05-16T07:23:29.861Z,17.70
2017-05-16T07:25:59.812Z,17.90
2017-05-16T07:28:29.341Z,17.80
2017-05-16T07:30:59.632Z,18.00
2017-05-16T07:33:29.169Z,18.10
2017-05-16T07:35:58.720Z,18.20
2017-05-16T07:38:28.252Z,18.30
2017-05-16T07:40:57.800Z,18.50
2017-05-16T07:43:27.336Z,18.50
2017-05-16T07:45:56.881Z,18.60
2017-05-16T07:48:26.409Z,18.90
2017-05-16T07:50:56.704Z,18.90
2017-05-16T07:56:05.016Z,19.20
2017-05-16T07:58:35.540Z,19.00
2017-05-16T08:01:05.059Z,19.10
2017-05-16T08:03:34.597Z,19.30
2017-05-16T08:06:05.175Z,19.50
2017-05-16T08:08:34.700Z,19.20
2017-05-16T08:11:04.232Z,19.40
2017-05-16T08:13:34.513Z,19.60
2017-05-16T08:16:04.040Z,19.60
2017-05-16T08:18:33.592Z,19.60
2017-05-16T08:21:03.124Z,19.50
2017-05-16T08:23:32.680Z,19.50
2017-05-16T08:26:02.212Z,19.70
2017-05-16T08:28:31.780Z,20.10
2017-05-16T08:31:02.172Z,20.20
2017-05-16T08:33:31.668Z,20.40
2017-05-16T08:36:01.196Z,20.50
2017-05-16T08:38:30.728Z,20.60
2017-05-16T08:41:00.999Z,20.30
2017-05-16T08:43:30.576Z,20.20
2017-05-16T08:46:00.104Z,20.30
2017-05-16T08:48:29.647Z,20.40
2017-05-16T08:50:59.184Z,20.50
2017-05-16T08:53:28.727Z,20.90
2017-05-16T08:55:58.264Z,21.00
2017-05-16T08:58:27.811Z,21.30
2017-05-16T09:00:57.340Z,21.50
2017-05-16T09:03:26.895Z,21.40
2017-05-16T09:05:57.161Z,21.50
2017-05-16T09:08:26.695Z,21.60
2017-05-16T09:10:56.219Z,21.80
2017-05-16T09:13:26.495Z,21.90
2017-05-16T09:15:56.023Z,21.60
2017-05-16T09:18:25.559Z,21.50
2017-05-16T09:20:55.827Z,21.90
2017-05-16T09:23:25.390Z,22.00
2017-05-16T09:25:55.642Z,22.10
2017-05-16T09:28:25.207Z,22.40
2017-05-16T09:30:55.471Z,22.20
2017-05-16T09:33:25.003Z,21.90
2017-05-16T09:35:54.530Z,21.90
2017-05-16T09:38:24.124Z,22.10
2017-05-16T09:40:53.647Z,22.20
2017-05-16T09:43:23.923Z,22.00
2017-05-16T09:45:53.447Z,22.40
2017-05-16T09:48:23.270Z,22.60
2017-05-16T09:50:52.791Z,22.70
2017-05-16T09:53:23.084Z,22.80
2017-05-16T09:55:52.610Z,22.80
2017-05-16T09:58:22.142Z,22.80
2017-05-16T10:00:51.682Z,22.60
2017-05-16T10:03:21.219Z,22.40
2017-05-16T10:05:50.762Z,22.00
2017-05-16T10:08:20.287Z,22.40
2017-05-16T10:10:49.818Z,22.50
2017-05-16T10:13:19.366Z,22.80
2017-05-16T10:15:49.635Z,22.90
2017-05-16T10:18:19.394Z,23.10
2017-05-16T10:20:49.659Z,23.00
2017-05-16T10:23:19.190Z,23.00
2017-05-16T10:25:48.718Z,23.20
2017-05-16T10:28:18.350Z,23.30
2017-05-16T10:30:48.002Z,22.70
2017-05-16T10:33:17.530Z,22.50
2017-05-16T10:38:16.066Z,22.10
2017-05-16T10:40:45.622Z,22.20
2017-05-16T10:43:15.154Z,22.50
2017-05-16T10:45:45.422Z,22.30
2017-05-16T10:48:15.106Z,21.90
2017-05-16T10:50:44.754Z,21.90
2017-05-16T10:53:14.275Z,22.00
2017-05-16T10:55:43.798Z,22.00
2017-05-16T10:58:14.085Z,22.40
2017-05-16T11:00:43.616Z,22.70
2017-05-16T11:03:13.162Z,22.50
2017-05-16T11:05:42.685Z,22.50
2017-05-16T11:08:12.213Z,22.60
2017-05-16T11:10:41.762Z,22.30
2017-05-16T11:13:11.289Z,22.40
2017-05-16T11:15:40.841Z,22.60
2017-05-16T11:18:10.361Z,22.80
2017-05-16T11:20:40.633Z,23.20
2017-05-16T11:23:10.189Z,23.40
2017-05-16T11:25:40.457Z,23.10
2017-05-16T11:28:09.994Z,22.80
2017-05-16T11:30:39.521Z,22.60
2017-05-16T11:33:09.810Z,22.80
2017-05-16T11:35:39.338Z,22.50
2017-05-16T11:38:08.873Z,22.30
2017-05-16T11:40:38.405Z,22.40
2017-05-16T11:43:07.969Z,22.50
2017-05-16T11:45:37.642Z,22.80
2017-05-16T11:48:07.333Z,22.90
2017-05-16T11:50:36.873Z,22.90
2017-05-16T11:53:06.405Z,23.00
2017-05-16T11:55:35.937Z,22.80
2017-05-16T11:58:05.469Z,23.10
2017-05-16T12:00:35.010Z,22.90
2017-05-16T12:03:05.281Z,23.00
2017-05-16T12:05:34.832Z,22.90
2017-05-16T12:08:05.101Z,22.90
2017-05-16T12:10:34.639Z,23.30
2017-05-16T12:13:04.166Z,23.10
2017-05-16T12:15:34.467Z,23.70
2017-05-16T12:18:03.993Z,23.70
2017-05-16T12:20:34.273Z,23.70
2017-05-16T12:23:03.916Z,23.60
2017-05-16T12:25:33.450Z,23.10
2017-05-16T12:28:06.673Z,23.20
2017-05-16T12:30:36.849Z,23.90
2017-05-16T12:33:07.161Z,23.50
2017-05-16T12:35:37.633Z,23.40
2017-05-16T12:38:07.160Z,23.10
2017-05-16T12:40:37.593Z,23.20
2017-05-16T12:43:07.121Z,23.20
2017-05-16T12:45:37.404Z,23.10
2017-05-16T12:48:06.928Z,23.40
2017-05-16T12:50:36.473Z,23.30
2017-05-16T12:53:06.008Z,23.30
2017-05-16T12:55:35.640Z,23.10
2017-05-16T12:58:05.197Z,23.30
2017-05-16T13:00:35.053Z,23.20
2017-05-16T13:03:04.814Z,23.30
2017-05-16T13:05:35.088Z,23.60
2017-05-16T13:08:04.608Z,23.90
2017-05-16T13:10:34.148Z,24.00
2017-05-16T13:13:03.693Z,23.90
2017-05-16T13:15:33.224Z,24.40
2017-05-16T13:18:02.776Z,24.80
2017-05-16T13:20:32.308Z,24.60
2017-05-16T13:23:01.844Z,24.30
2017-05-16T13:25:31.384Z,24.20
2017-05-16T13:28:00.908Z,24.30
2017-05-16T13:30:30.464Z,24.60
2017-05-16T13:33:00.048Z,24.20
2017-05-16T13:35:29.584Z,23.90
2017-05-16T13:37:59.875Z,23.60
2017-05-16T13:40:29.412Z,23.80
2017-05-16T13:42:59.691Z,24.20
2017-05-16T13:45:29.220Z,24.10
2017-05-16T13:47:58.772Z,23.90
2017-05-16T13:50:28.300Z,23.80
2017-05-16T13:52:57.848Z,23.90
2017-05-16T13:55:27.387Z,23.80
2017-05-16T13:57:56.907Z,24.00
2017-05-16T14:00:26.769Z,24.30
2017-05-16T14:02:56.292Z,24.60
2017-05-16T14:05:26.559Z,24.40
2017-05-16T14:07:56.108Z,24.40
2017-05-16T14:10:26.407Z,24.20
2017-05-16T14:12:55.957Z,24.30
2017-05-16T14:15:25.492Z,24.30
2017-05-16T14:17:55.032Z,24.50
2017-05-16T14:20:24.560Z,24.30
2017-05-16T14:22:54.839Z,24.20
2017-05-16T14:25:24.455Z,24.10
2017-05-16T14:27:54.051Z,24.30
2017-05-16T14:30:23.647Z,24.10
2017-05-16T14:32:53.179Z,23.80
2017-05-16T14:35:22.761Z,23.90
2017-05-16T14:37:52.287Z,23.90
2017-05-16T14:40:21.819Z,23.90
2017-05-16T14:42:51.343Z,24.00
2017-05-16T14:45:20.891Z,24.20
2017-05-16T14:47:50.423Z,24.10
2017-05-16T14:50:20.006Z,24.00
2017-05-16T14:52:49.494Z,24.10
2017-05-16T14:55:19.023Z,24.50
2017-05-16T14:57:48.572Z,24.30
2017-05-16T15:00:18.094Z,24.30
2017-05-16T15:02:47.735Z,24.00
2017-05-16T15:05:17.215Z,24.00
2017-05-16T15:07:46.746Z,24.40
2017-05-16T15:10:16.387Z,24.90
2017-05-16T15:12:46.143Z,24.70
2017-05-16T15:15:15.662Z,24.90
2017-05-16T15:17:45.186Z,24.60
2017-05-16T15:20:15.782Z,24.40
2017-05-16T15:22:45.323Z,24.50
2017-05-16T15:25:14.874Z,24.40
2017-05-16T15:27:44.438Z,24.40
2017-05-16T15:30:13.990Z,24.30
2017-05-16T15:32:43.530Z,24.50
2017-05-16T15:35:13.066Z,24.80
2017-05-16T15:37:43.382Z,24.80
2017-05-16T15:40:12.874Z,24.50
2017-05-16T15:42:42.394Z,24.10
2017-05-16T15:45:12.670Z,24.10
2017-05-16T15:47:42.194Z,24.20
2017-05-16T15:50:11.726Z,24.10
2017-05-16T15:52:43.034Z,23.80
2017-05-16T15:55:12.530Z,23.90
2017-05-16T15:57:42.058Z,23.90
2017-05-16T16:00:11.598Z,24.10
2017-05-16T16:02:41.865Z,24.10
2017-05-16T16:05:11.610Z,24.20
2017-05-16T16:07:41.135Z,24.10
2017-05-16T16:10:11.415Z,24.00
2017-05-16T16:12:40.970Z,24.00
2017-05-16T16:15:10.512Z,24.20
2017-05-16T16:17:40.034Z,24.20
2017-05-16T16:20:09.566Z,24.00
2017-05-16T16:22:39.837Z,23.90
2017-05-16T16:25:09.366Z,23.80
2017-05-16T16:27:38.889Z,24.00
2017-05-16T16:30:08.426Z,23.90
2017-05-16T16:32:37.966Z,23.90
2017-05-16T16:35:07.526Z,23.90
2017-05-16T16:37:37.793Z,23.90
2017-05-16T16:40:07.338Z,23.80
2017-05-16T16:42:36.857Z,23.60
2017-05-16T16:45:07.237Z,23.50
2017-05-16T16:47:36.727Z,23.50
2017-05-16T16:50:06.269Z,23.50
2017-05-16T16:52:35.809Z,23.50
2017-05-16T16:55:05.349Z,23.40
2017-05-16T16:57:35.558Z,23.60
2017-05-16T17:00:05.113Z,23.60
2017-05-16T17:02:34.645Z,23.30
2017-05-16T17:05:04.170Z,23.40
2017-05-16T17:07:33.763Z,23.40
2017-05-16T17:10:04.001Z,23.50
2017-05-16T17:12:33.553Z,23.20
2017-05-16T17:15:03.078Z,23.10
2017-05-16T17:17:33.353Z,23.20
2017-05-16T17:20:02.881Z,23.20
2017-05-16T17:22:32.421Z,23.10
2017-05-16T17:25:01.948Z,23.20
2017-05-16T17:27:31.477Z,23.10
2017-05-16T17:30:01.017Z,23.10
2017-05-16T17:32:31.289Z,23.20
2017-05-16T17:35:00.821Z,23.20
2017-05-16T17:37:30.352Z,23.50
2017-05-16T17:40:00.630Z,23.80
2017-05-16T17:42:30.173Z,23.90
2017-05-16T17:45:00.436Z,23.80
2017-05-16T17:47:29.969Z,23.30
2017-05-16T17:49:59.576Z,23.10
2017-05-16T17:52:29.065Z,22.90
2017-05-16T17:54:59.448Z,22.80
2017-05-16T17:57:29.740Z,22.60
2017-05-16T17:59:59.272Z,22.60
2017-05-16T18:02:29.552Z,22.40
2017-05-16T18:04:59.077Z,22.40
2017-05-16T18:07:28.641Z,22.40
2017-05-16T18:09:58.213Z,22.30
2017-05-16T18:12:28.516Z,22.20
2017-05-16T18:14:58.048Z,22.20
2017-05-16T18:17:28.344Z,22.10
2017-05-16T18:19:58.721Z,22.00
2017-05-16T18:22:28.344Z,21.90
2017-05-16T18:24:58.612Z,21.80
2017-05-16T18:27:28.340Z,21.70
2017-05-16T18:29:59.847Z,21.60
2017-05-16T18:32:29.430Z,21.60
2017-05-16T18:34:59.661Z,21.40
2017-05-16T18:37:30.172Z,21.30
2017-05-16T18:39:59.718Z,21.30
2017-05-16T18:42:29.257Z,21.10
2017-05-16T18:44:58.807Z,21.00
2017-05-16T18:47:28.337Z,20.90
2017-05-16T18:49:57.876Z,20.80
2017-05-16T18:52:27.432Z,20.70
2017-05-16T18:54:56.992Z,20.70
2017-05-16T18:57:27.072Z,20.70
2017-05-16T18:59:57.575Z,20.60
2017-05-16T19:02:27.124Z,20.70
2017-05-16T19:04:57.652Z,20.50
2017-05-16T19:07:27.176Z,20.50
2017-05-16T19:09:56.703Z,20.30
2017-05-16T19:12:26.239Z,20.20
2017-05-16T19:14:55.771Z,20.10
2017-05-16T19:17:26.067Z,20.20
2017-05-16T19:19:55.615Z,20.10
2017-05-16T19:22:25.168Z,20.00
2017-05-16T19:24:54.704Z,20.00
2017-05-16T19:27:25.024Z,19.90
2017-05-16T19:29:54.560Z,19.90
2017-05-16T19:32:24.153Z,19.80
2017-05-16T19:34:54.431Z,19.70
2017-05-16T19:37:23.975Z,19.70
2017-05-16T19:39:56.468Z,19.50
2017-05-16T19:42:26.015Z,19.40
2017-05-16T19:44:55.571Z,19.10
2017-05-16T19:47:25.107Z,19.00
2017-05-16T19:49:54.660Z,18.90
2017-05-16T19:52:24.195Z,18.90
2017-05-16T19:54:53.727Z,18.80
2017-05-16T19:57:23.295Z,18.10
2017-05-16T19:59:52.831Z,17.80
2017-05-16T20:02:22.383Z,17.70
2017-05-16T20:04:52.663Z,17.80
2017-05-16T20:07:22.227Z,18.00
2017-05-16T20:09:53.663Z,18.00
2017-05-16T20:12:23.950Z,18.10
2017-05-16T20:14:54.447Z,18.20
2017-05-16T20:17:24.007Z,18.30
2017-05-16T20:19:53.538Z,18.30
2017-05-16T20:22:23.107Z,18.40
2017-05-16T20:24:52.646Z,18.30
2017-05-16T20:27:22.931Z,18.40
2017-05-16T20:29:52.466Z,18.30
2017-05-16T20:32:22.755Z,18.30
2017-05-16T20:34:52.299Z,17.80
2017-05-16T20:37:22.590Z,17.50
2017-05-16T20:39:52.136Z,17.10
2017-05-16T20:42:21.683Z,16.90
2017-05-16T20:44:51.223Z,17.00
2017-05-16T20:47:21.547Z,17.00
2017-05-16T20:49:51.074Z,17.20
2017-05-16T20:52:20.639Z,17.20
2017-05-16T20:54:56.046Z,17.20
2017-05-16T20:57:29.778Z,17.10
2017-05-16T20:59:59.307Z,16.70
2017-05-16T21:02:29.594Z,16.60
2017-05-16T21:04:59.974Z,16.40
2017-05-16T21:07:31.206Z,16.40
2017-05-16T21:10:01.266Z,16.60
2017-05-16T21:12:30.818Z,16.70
2017-05-16T21:15:02.314Z,16.80
2017-05-16T21:17:31.858Z,16.70
2017-05-16T21:20:03.365Z,16.40
2017-05-16T21:22:32.950Z,16.00
2017-05-16T21:25:03.237Z,16.00
2017-05-16T21:27:37.625Z,16.20
2017-05-16T21:30:07.182Z,16.10
2017-05-16T21:32:36.713Z,16.00
2017-05-16T21:35:06.258Z,16.00
2017-05-16T21:37:35.806Z,16.00
2017-05-16T21:40:11.310Z,15.80
2017-05-16T21:42:44.074Z,15.70
2017-05-16T21:45:13.610Z,15.90
2017-05-16T21:47:43.145Z,16.00
2017-05-16T21:50:13.541Z,16.10
2017-05-16T21:52:43.082Z,16.10
2017-05-16T21:55:16.926Z,16.10
2017-05-16T21:57:47.422Z,16.10
2017-05-16T22:00:16.985Z,15.80
2017-05-16T22:02:46.501Z,15.60
2017-05-16T22:05:16.045Z,15.70
2017-05-16T22:07:47.597Z,15.80
2017-05-16T22:10:40.542Z,15.90
2017-05-16T22:13:16.029Z,15.90
2017-05-16T22:15:45.585Z,15.80
2017-05-16T22:18:16.833Z,15.80
2017-05-16T22:20:48.118Z,15.90
2017-05-16T22:23:18.565Z,15.70
2017-05-16T22:25:54.410Z,15.30
2017-05-16T22:28:28.485Z,15.30
2017-05-16T22:30:59.953Z,15.30
2017-05-16T22:33:30.373Z,15.30
2017-05-16T22:35:59.917Z,15.40
2017-05-16T22:38:29.469Z,15.30
2017-05-16T22:40:59.041Z,15.20
2017-05-16T22:43:28.594Z,15.10
2017-05-16T22:46:00.137Z,15.10
2017-05-16T22:48:35.345Z,15.10
2017-05-16T22:51:07.673Z,15.00
2017-05-16T22:53:38.190Z,14.90
2017-05-16T22:56:07.720Z,14.90
2017-05-16T22:58:37.277Z,14.60
2017-05-16T23:01:09.560Z,14.70
2017-05-16T23:03:41.111Z,14.80
2017-05-16T23:06:13.989Z,15.00
2017-05-16T23:08:43.537Z,15.10
2017-05-16T23:11:15.089Z,15.10
2017-05-16T23:13:49.262Z,15.00
2017-05-16T23:16:26.637Z,15.00
2017-05-16T23:21:51.360Z,14.90
2017-05-16T23:24:25.133Z,14.70
2017-05-16T23:26:56.444Z,14.60
2017-05-16T23:29:25.981Z,14.60
2017-05-16T23:31:55.544Z,14.60
2017-05-16T23:34:47.152Z,14.70
2017-05-16T23:37:21.876Z,14.70
2017-05-16T23:39:54.664Z,14.70
2017-05-16T23:42:29.305Z,14.70
2017-05-16T23:45:02.208Z,14.70
2017-05-16T23:47:31.752Z,14.70
2017-05-16T23:50:02.289Z,14.50
2017-05-16T23:52:32.867Z,14.50
2017-05-16T23:55:03.357Z,14.50
2017-05-16T23:57:32.924Z,14.50
